createdAt,value
2018-01-23T00:00:21.041Z,5.94
2018-01-23T00:01:21.056Z,6.05
2018-01-23T00:02:21.070Z,6.04
2018-01-23T00:03:21.084Z,6.12
2018-01-23T00:04:20.845Z,6.19
2018-01-23T00:05:21.111Z,6.16
2018-01-23T00:06:20.890Z,6.19
2018-01-23T00:07:20.638Z,6.35
2018-01-23T00:08:20.903Z,6.33
2018-01-23T00:09:20.919Z,6.31
2018-01-23T00:10:21.192Z,6.33
2018-01-23T00:11:20.950Z,6.41
2018-01-23T00:12:20.963Z,6.39
2018-01-23T00:13:21.229Z,6.46
2018-01-23T00:14:21.003Z,6.35
2018-01-23T00:15:21.007Z,6.41
2018-01-23T00:16:21.279Z,6.3
2018-01-23T00:17:20.782Z,6.28
2018-01-23T00:18:21.072Z,6.39
2018-01-23T00:19:21.065Z,6.41
2018-01-23T00:20:21.329Z,6.48
2018-01-23T00:21:21.096Z,6.45
2018-01-23T00:22:21.106Z,6.42
2018-01-23T00:23:21.121Z,6.44
2018-01-23T00:24:20.885Z,6.48
2018-01-23T00:25:21.405Z,6.38
2018-01-23T00:26:21.416Z,6.49
2018-01-23T00:27:21.179Z,6.24
2018-01-23T00:28:21.197Z,6.28
2018-01-23T00:29:21.463Z,6.33
2018-01-23T00:30:21.490Z,6.38
2018-01-23T00:31:20.988Z,6.35
2018-01-23T00:32:21.504Z,6.38
2018-01-23T00:33:21.272Z,6.19
2018-01-23T00:34:21.536Z,6.28
2018-01-23T00:35:21.559Z,6.27
2018-01-23T00:36:21.312Z,6.31
2018-01-23T00:37:21.581Z,6.36
2018-01-23T00:38:21.342Z,6.27
2018-01-23T00:39:21.359Z,6.19
2018-01-23T00:40:21.381Z,6.17
2018-01-23T00:41:21.388Z,6.26
2018-01-23T00:42:21.651Z,6.3
2018-01-23T00:43:21.422Z,6.24
2018-01-23T00:44:21.434Z,6.27
2018-01-23T00:45:21.449Z,6.22
2018-01-23T00:46:21.461Z,6.24
2018-01-23T00:47:21.496Z,6.12
2018-01-23T00:48:21.749Z,6.17
2018-01-23T00:49:21.274Z,6.08
2018-01-23T00:50:21.784Z,6.08
2018-01-23T00:51:21.532Z,5.97
2018-01-23T00:52:21.797Z,5.94
2018-01-23T00:53:21.307Z,5.98
2018-01-23T00:54:21.572Z,5.94
2018-01-23T00:55:21.842Z,5.9
2018-01-23T00:56:21.603Z,5.98
2018-01-23T00:57:21.867Z,5.97
2018-01-23T00:58:21.388Z,5.93
2018-01-23T00:59:21.908Z,5.9
2018-01-23T01:00:21.665Z,5.98
2018-01-23T01:01:21.426Z,6.02
2018-01-23T01:02:21.940Z,6.08
2018-01-23T01:03:21.709Z,6.01
2018-01-23T01:04:21.723Z,6.05
2018-01-23T01:05:21.983Z,5.98
2018-01-23T01:06:21.753Z,5.91
2018-01-23T01:07:21.768Z,6.02
2018-01-23T01:08:21.779Z,6.02
2018-01-23T01:09:22.053Z,5.87
2018-01-23T01:10:21.579Z,5.98
2018-01-23T01:11:21.829Z,5.93
2018-01-23T01:12:21.840Z,6.02
2018-01-23T01:13:21.857Z,6.07
2018-01-23T01:14:22.120Z,6.08
2018-01-23T01:15:22.138Z,6.02
2018-01-23T01:16:21.659Z,5.98
2018-01-23T01:17:21.915Z,6.02
2018-01-23T01:18:21.926Z,6.04
2018-01-23T01:19:21.688Z,6.01
2018-01-23T01:20:22.207Z,6.14
2018-01-23T01:21:21.719Z,6.24
2018-01-23T01:22:21.729Z,6.24
2018-01-23T01:23:22.251Z,6.31
2018-01-23T01:24:22.263Z,6.19
2018-01-23T01:25:22.030Z,6.14
2018-01-23T01:26:22.039Z,6.09
2018-01-23T01:27:22.064Z,6.01
2018-01-23T01:28:22.067Z,6.12
2018-01-23T01:29:22.384Z,6.12
2018-01-23T01:30:22.097Z,6.12
2018-01-23T01:31:22.405Z,6.26
2018-01-23T01:32:22.383Z,6.14
2018-01-23T01:33:22.395Z,6.28
2018-01-23T01:34:21.905Z,6.22
2018-01-23T01:35:22.168Z,6.09
2018-01-23T01:36:22.191Z,6.22
2018-01-23T01:37:22.456Z,6.31
2018-01-23T01:38:22.599Z,6.22
2018-01-23T01:39:21.999Z,6.02
2018-01-23T01:40:22.495Z,6.07
2018-01-23T01:41:22.262Z,6.09
2018-01-23T01:42:22.272Z,6.01
2018-01-23T01:43:22.562Z,5.97
2018-01-23T01:44:22.556Z,5.89
2018-01-23T01:45:22.579Z,5.99
2018-01-23T01:46:22.332Z,6.02
2018-01-23T01:47:22.596Z,5.93
2018-01-23T01:48:22.369Z,5.93
2018-01-23T01:49:22.126Z,5.72
2018-01-23T01:50:22.392Z,5.72
2018-01-23T01:51:22.401Z,5.8
2018-01-23T01:52:22.418Z,5.82
2018-01-23T01:53:22.685Z,5.94
2018-01-23T01:54:22.448Z,5.75
2018-01-23T01:55:22.462Z,5.93
2018-01-23T01:56:22.733Z,5.97
2018-01-23T01:57:22.492Z,5.99
2018-01-23T01:58:22.506Z,5.97
2018-01-23T01:59:22.771Z,6.05
2018-01-23T02:00:22.555Z,6.08
2018-01-23T02:01:22.548Z,6.02
2018-01-23T02:02:22.310Z,5.98
2018-01-23T02:03:22.827Z,5.9
2018-01-23T02:04:22.589Z,5.89
2018-01-23T02:05:22.602Z,5.91
2018-01-23T02:06:22.877Z,5.84
2018-01-23T02:07:22.632Z,5.82
2018-01-23T02:08:22.711Z,5.82
2018-01-23T02:09:22.929Z,5.73
2018-01-23T02:10:22.929Z,5.8
2018-01-23T02:11:22.689Z,5.75
2018-01-23T02:12:22.454Z,5.76
2018-01-23T02:13:22.968Z,5.79
2018-01-23T02:14:22.753Z,5.72
2018-01-23T02:15:22.751Z,5.69
2018-01-23T02:16:23.056Z,5.64
2018-01-23T02:17:22.524Z,5.66
2018-01-23T02:18:22.794Z,5.64
2018-01-23T02:19:22.804Z,5.75
2018-01-23T02:20:22.819Z,5.73
2018-01-23T02:21:23.088Z,5.83
2018-01-23T02:22:22.857Z,5.87
2018-01-23T02:23:22.864Z,5.97
2018-01-23T02:24:22.883Z,5.87
2018-01-23T02:25:22.637Z,5.76
2018-01-23T02:26:23.159Z,5.69
2018-01-23T02:27:23.176Z,5.72
2018-01-23T02:28:22.944Z,5.71
2018-01-23T02:29:23.199Z,5.94
2018-01-23T02:30:23.212Z,6.02
2018-01-23T02:31:23.240Z,5.89
2018-01-23T02:32:22.987Z,5.73
2018-01-23T02:33:23.009Z,5.68
2018-01-23T02:34:23.018Z,5.87
2018-01-23T02:35:23.288Z,5.75
2018-01-23T02:36:23.055Z,5.71
2018-01-23T02:37:22.806Z,5.72
2018-01-23T02:38:23.072Z,5.84
2018-01-23T02:39:23.336Z,5.76
2018-01-23T02:40:23.100Z,5.84
2018-01-23T02:41:23.362Z,5.79
2018-01-23T02:42:23.379Z,5.83
2018-01-23T02:43:23.160Z,5.86
2018-01-23T02:44:23.407Z,5.83
2018-01-23T02:45:23.167Z,5.9
2018-01-23T02:46:23.192Z,6.04
2018-01-23T02:47:23.467Z,5.97
2018-01-23T02:48:23.219Z,6.11
2018-01-23T02:49:23.482Z,6.09
2018-01-23T02:50:23.496Z,6.08
2018-01-23T02:51:23.026Z,6.12
2018-01-23T02:52:23.273Z,5.91
2018-01-23T02:53:23.547Z,5.89
2018-01-23T02:54:23.553Z,5.89
2018-01-23T02:55:23.572Z,5.69
2018-01-23T02:56:23.328Z,5.64
2018-01-23T02:57:23.347Z,5.64
2018-01-23T02:58:23.106Z,5.53
2018-01-23T02:59:23.372Z,5.65
2018-01-23T03:00:23.658Z,5.66
2018-01-23T03:01:23.651Z,5.53
2018-01-23T03:02:23.162Z,5.56
2018-01-23T03:03:23.894Z,5.59
2018-01-23T03:04:23.694Z,5.43
2018-01-23T03:05:23.459Z,5.46
2018-01-23T03:06:23.723Z,5.51
2018-01-23T03:07:23.487Z,5.46
2018-01-23T03:08:23.804Z,5.41
2018-01-23T03:09:23.258Z,5.46
2018-01-23T03:10:23.522Z,5.29
2018-01-23T03:11:23.789Z,5.35
2018-01-23T03:12:23.549Z,5.41
2018-01-23T03:13:23.816Z,5.39
2018-01-23T03:14:23.591Z,5.47
2018-01-23T03:15:23.601Z,5.36
2018-01-23T03:16:23.354Z,5.44
2018-01-23T03:17:23.623Z,5.51
2018-01-23T03:18:23.884Z,5.5
2018-01-23T03:19:23.654Z,5.46
2018-01-23T03:20:23.917Z,5.46
2018-01-23T03:21:23.928Z,5.54
2018-01-23T03:22:23.441Z,5.48
2018-01-23T03:23:23.965Z,5.48
2018-01-23T03:24:23.466Z,5.51
2018-01-23T03:25:23.985Z,5.56
2018-01-23T03:26:23.749Z,5.65
2018-01-23T03:27:23.765Z,5.75
2018-01-23T03:28:23.778Z,5.76
2018-01-23T03:29:23.794Z,5.68
2018-01-23T03:30:24.061Z,5.79
2018-01-23T03:31:23.833Z,5.75
2018-01-23T03:32:24.084Z,5.73
2018-01-23T03:33:24.101Z,5.79
2018-01-23T03:34:23.874Z,5.69
2018-01-23T03:35:23.922Z,5.64
2018-01-23T03:36:24.149Z,5.65
2018-01-23T03:37:24.153Z,5.48
2018-01-23T03:38:23.918Z,5.51
2018-01-23T03:39:23.680Z,5.64
2018-01-23T03:40:24.197Z,5.64
2018-01-23T03:41:23.960Z,5.61
2018-01-23T03:42:24.232Z,5.59
2018-01-23T03:43:23.738Z,5.44
2018-01-23T03:44:24.003Z,5.44
2018-01-23T03:45:24.272Z,5.38
2018-01-23T03:46:24.278Z,5.5
2018-01-23T03:47:24.293Z,5.48
2018-01-23T03:48:24.076Z,5.62
2018-01-23T03:49:24.321Z,5.56
2018-01-23T03:50:24.086Z,5.51
2018-01-23T03:51:23.844Z,5.72
2018-01-23T03:52:24.358Z,5.68
2018-01-23T03:53:24.122Z,5.73
2018-01-23T03:54:24.142Z,5.71
2018-01-23T03:55:24.404Z,5.64
2018-01-23T03:56:24.168Z,5.65
2018-01-23T03:57:24.432Z,5.69
2018-01-23T03:58:24.446Z,5.71
2018-01-23T03:59:24.222Z,5.62
2018-01-23T04:00:23.977Z,5.59
2018-01-23T04:01:24.491Z,5.66
2018-01-23T04:02:24.266Z,5.57
2018-01-23T04:03:24.516Z,5.57
2018-01-23T04:04:24.279Z,5.46
2018-01-23T04:05:24.301Z,5.51
2018-01-23T04:06:24.562Z,5.56
2018-01-23T04:07:24.323Z,5.51
2018-01-23T04:08:24.337Z,5.51
2018-01-23T04:09:24.347Z,5.56
2018-01-23T04:10:24.615Z,5.46
2018-01-23T04:11:24.378Z,5.44
2018-01-23T04:12:24.392Z,5.41
2018-01-23T04:13:24.657Z,5.44
2018-01-23T04:14:24.420Z,5.56
2018-01-23T04:15:24.180Z,5.59
2018-01-23T04:16:24.445Z,5.48
2018-01-23T04:17:24.463Z,5.39
2018-01-23T04:18:24.476Z,5.39
2018-01-23T04:19:39.413Z,5.33
2018-01-23T04:20:24.503Z,5.35
2018-01-23T04:21:24.518Z,5.21
2018-01-23T04:22:24.786Z,5.32
2018-01-23T04:23:24.550Z,5.32
2018-01-23T04:24:24.842Z,5.41
2018-01-23T04:25:24.827Z,5.46
2018-01-23T04:26:24.588Z,5.51
2018-01-23T04:27:24.609Z,5.43
2018-01-23T04:28:24.616Z,5.59
2018-01-23T04:29:24.881Z,5.43
2018-01-23T04:30:24.645Z,5.39
2018-01-23T04:31:24.909Z,5.41
2018-01-23T04:32:24.940Z,5.29
2018-01-23T04:33:24.698Z,5.48
2018-01-23T04:34:24.699Z,5.46
2018-01-23T04:35:24.973Z,5.51
2018-01-23T04:36:24.728Z,5.5
2018-01-23T04:37:24.747Z,5.51
2018-01-23T04:38:25.011Z,5.5
2018-01-23T04:39:24.783Z,5.66
2018-01-23T04:40:24.781Z,5.66
2018-01-23T04:41:24.797Z,5.71
2018-01-23T04:42:24.560Z,5.62
2018-01-23T04:43:24.830Z,5.61
2018-01-23T04:44:24.842Z,5.64
2018-01-23T04:45:25.103Z,5.72
2018-01-23T04:46:24.873Z,5.75
2018-01-23T04:47:24.891Z,5.71
2018-01-23T04:48:25.150Z,5.66
2018-01-23T04:49:24.912Z,5.62
2018-01-23T04:50:24.921Z,5.68
2018-01-23T04:51:25.204Z,5.72
2018-01-23T04:52:25.206Z,5.73
2018-01-23T04:53:24.720Z,5.68
2018-01-23T04:54:24.987Z,5.73
2018-01-23T04:55:24.996Z,5.61
2018-01-23T04:56:25.011Z,5.62
2018-01-23T04:57:25.028Z,5.61
2018-01-23T04:58:24.785Z,5.51
2018-01-23T04:59:25.054Z,5.46
2018-01-23T05:00:25.325Z,5.56
2018-01-23T05:01:24.836Z,5.65
2018-01-23T05:02:24.849Z,5.62
2018-01-23T05:03:25.362Z,5.71
2018-01-23T05:04:25.127Z,5.68
2018-01-23T05:05:25.385Z,5.73
2018-01-23T05:06:24.897Z,5.76
2018-01-23T05:07:24.909Z,5.82
2018-01-23T05:08:25.445Z,5.97
2018-01-23T05:09:25.195Z,5.82
2018-01-23T05:10:25.204Z,5.86
2018-01-23T05:11:25.471Z,5.82
2018-01-23T05:12:25.230Z,5.8
2018-01-23T05:13:25.502Z,5.97
2018-01-23T05:14:25.269Z,6.02
2018-01-23T05:15:25.287Z,5.98
2018-01-23T05:16:25.544Z,5.99
2018-01-23T05:17:25.056Z,5.9
2018-01-23T05:18:25.580Z,5.87
2018-01-23T05:19:25.585Z,5.71
2018-01-23T05:20:25.599Z,5.65
2018-01-23T05:21:25.619Z,5.65
2018-01-23T05:22:25.640Z,5.57
2018-01-23T05:23:25.644Z,5.65
2018-01-23T05:24:25.172Z,5.62
2018-01-23T05:25:25.448Z,5.57
2018-01-23T05:26:25.183Z,5.64
2018-01-23T05:27:25.700Z,5.51
2018-01-23T05:28:25.718Z,5.68
2018-01-23T05:29:25.476Z,5.5
2018-01-23T05:30:25.501Z,5.44
2018-01-23T05:31:25.506Z,5.41
2018-01-23T05:32:25.267Z,5.41
2018-01-23T05:33:25.798Z,5.47
2018-01-23T05:34:25.849Z,5.44
2018-01-23T05:35:25.562Z,5.46
2018-01-23T05:36:25.826Z,5.47
2018-01-23T05:37:25.841Z,5.46
2018-01-23T05:38:25.368Z,5.46
2018-01-23T05:39:25.625Z,5.3
2018-01-23T05:40:25.889Z,5.38
2018-01-23T05:41:25.396Z,5.3
2018-01-23T05:42:25.660Z,5.43
2018-01-23T05:43:25.678Z,5.51
2018-01-23T05:44:25.443Z,5.51
2018-01-23T05:45:25.709Z,5.68
2018-01-23T05:46:25.722Z,5.75
2018-01-23T05:47:25.736Z,5.72
2018-01-23T05:48:25.496Z,5.65
2018-01-23T05:49:25.752Z,5.64
2018-01-23T05:50:26.026Z,5.61
2018-01-23T05:51:26.057Z,5.64
2018-01-23T05:52:26.056Z,5.64
2018-01-23T05:53:26.068Z,5.57
2018-01-23T05:54:25.848Z,5.72
2018-01-23T05:55:25.853Z,5.62
2018-01-23T05:56:26.110Z,5.61
2018-01-23T05:57:26.124Z,5.46
2018-01-23T05:58:25.894Z,5.65
2018-01-23T05:59:25.924Z,5.64
2018-01-23T06:00:25.671Z,5.71
2018-01-23T06:01:25.935Z,5.68
2018-01-23T06:02:25.963Z,5.62
2018-01-23T06:03:25.961Z,5.69
2018-01-23T06:04:25.716Z,5.68
2018-01-23T06:05:25.985Z,5.69
2018-01-23T06:06:26.250Z,5.73
2018-01-23T06:07:26.016Z,5.69
2018-01-23T06:08:26.042Z,5.83
2018-01-23T06:09:25.792Z,5.72
2018-01-23T06:10:26.308Z,5.72
2018-01-23T06:11:26.333Z,5.72
2018-01-23T06:12:26.332Z,5.79
2018-01-23T06:13:25.851Z,5.66
2018-01-23T06:14:26.364Z,5.68
2018-01-23T06:15:26.377Z,5.64
2018-01-23T06:16:26.393Z,5.61
2018-01-23T06:17:26.152Z,5.64
2018-01-23T06:18:26.422Z,5.68
2018-01-23T06:19:25.934Z,5.72
2018-01-23T06:20:26.228Z,5.71
2018-01-23T06:21:26.216Z,5.84
2018-01-23T06:22:26.231Z,5.73
2018-01-23T06:23:26.265Z,5.73
2018-01-23T06:24:26.257Z,5.69
2018-01-23T06:25:26.021Z,5.79
2018-01-23T06:26:26.285Z,5.66
2018-01-23T06:27:26.556Z,5.75
2018-01-23T06:28:26.316Z,5.62
2018-01-23T06:29:26.333Z,5.62
2018-01-23T06:30:26.343Z,5.48
2018-01-23T06:31:26.357Z,5.65
2018-01-23T06:32:26.714Z,5.46
2018-01-23T06:33:26.391Z,5.65
2018-01-23T06:34:26.149Z,5.68
2018-01-23T06:35:26.667Z,5.69
2018-01-23T06:36:26.681Z,5.69
2018-01-23T06:37:26.709Z,5.59
2018-01-23T06:38:26.707Z,5.47
2018-01-23T06:39:26.728Z,5.65
2018-01-23T06:40:26.751Z,5.61
2018-01-23T06:41:26.248Z,5.69
2018-01-23T06:42:26.770Z,5.73
2018-01-23T06:43:26.784Z,5.72
2018-01-23T06:44:26.800Z,5.72
2018-01-23T06:45:26.815Z,5.83
2018-01-23T06:46:26.825Z,5.82
2018-01-23T06:47:26.587Z,5.91
2018-01-23T06:48:26.602Z,5.94
2018-01-23T06:49:26.866Z,5.83
2018-01-23T06:50:26.380Z,5.89
2018-01-23T06:51:26.647Z,5.71
2018-01-23T06:52:26.660Z,5.66
2018-01-23T06:53:26.673Z,5.8
2018-01-23T06:54:26.437Z,5.72
2018-01-23T06:55:26.705Z,5.68
2018-01-23T06:56:26.727Z,5.68
2018-01-23T06:57:26.982Z,5.83
2018-01-23T06:58:26.746Z,5.75
2018-01-23T06:59:26.507Z,5.8
2018-01-23T07:00:26.801Z,5.72
2018-01-23T07:01:26.791Z,5.64
2018-01-23T07:02:26.803Z,5.69
2018-01-23T07:03:26.820Z,5.68
2018-01-23T07:04:26.587Z,5.83
2018-01-23T07:05:26.869Z,5.84
2018-01-23T07:06:26.880Z,5.87
2018-01-23T07:07:27.128Z,5.94
2018-01-23T07:08:27.229Z,5.89
2018-01-23T07:09:27.183Z,6.07
2018-01-23T07:10:27.173Z,5.97
2018-01-23T07:11:27.187Z,5.8
2018-01-23T07:12:26.701Z,6.02
2018-01-23T07:13:26.714Z,6.09
2018-01-23T07:14:26.990Z,6.11
2018-01-23T07:15:27.244Z,6.09
2018-01-23T07:16:27.270Z,6.01
2018-01-23T07:17:26.770Z,6.09
2018-01-23T07:18:27.286Z,6.01
2018-01-23T07:19:26.801Z,5.84
2018-01-23T07:20:27.322Z,5.75
2018-01-23T07:21:27.364Z,5.82
2018-01-23T07:22:27.102Z,5.71
2018-01-23T07:23:27.363Z,5.86
2018-01-23T07:24:27.145Z,5.87
2018-01-23T07:25:27.146Z,5.9
2018-01-23T07:26:41.827Z,5.91
2018-01-23T07:27:26.928Z,5.73
2018-01-23T07:28:26.933Z,5.75
2018-01-23T07:29:27.450Z,5.93
2018-01-23T07:30:27.214Z,5.99
2018-01-23T07:31:26.977Z,5.93
2018-01-23T07:32:27.242Z,5.9
2018-01-23T07:33:27.506Z,6.04
2018-01-23T07:34:27.531Z,6.02
2018-01-23T07:35:27.301Z,5.93
2018-01-23T07:36:27.302Z,5.94
2018-01-23T07:37:27.315Z,5.86
2018-01-23T07:38:27.595Z,5.89
2018-01-23T07:39:27.091Z,5.9
2018-01-23T07:40:27.357Z,5.94
2018-01-23T07:41:27.373Z,5.97
2018-01-23T07:42:27.385Z,6.02
2018-01-23T07:43:27.654Z,6.08
2018-01-23T07:44:27.186Z,5.93
2018-01-23T07:45:27.431Z,5.87
2018-01-23T07:46:27.193Z,6.05
2018-01-23T07:47:27.478Z,5.93
2018-01-23T07:48:27.726Z,6.01
2018-01-23T07:49:27.740Z,5.91
2018-01-23T07:50:27.774Z,5.82
2018-01-23T07:51:27.771Z,5.97
2018-01-23T07:52:27.534Z,5.84
2018-01-23T07:53:27.554Z,5.84
2018-01-23T07:54:27.564Z,6.01
2018-01-23T07:55:27.828Z,5.93
2018-01-23T07:56:27.345Z,5.98
2018-01-23T07:57:27.357Z,6.04
2018-01-23T07:58:27.651Z,6.05
2018-01-23T07:59:27.890Z,6.12
2018-01-23T08:00:27.658Z,6.05
2018-01-23T08:01:27.668Z,6.17
2018-01-23T08:02:27.686Z,6.12
2018-01-23T08:03:27.954Z,6.08
2018-01-23T08:04:27.712Z,6.08
2018-01-23T08:05:27.476Z,6.04
2018-01-23T08:06:27.800Z,5.99
2018-01-23T08:07:27.501Z,6.08
2018-01-23T08:08:27.523Z,6.08
2018-01-23T08:09:27.536Z,6.04
2018-01-23T08:10:27.806Z,6.05
2018-01-23T08:11:27.817Z,6.04
2018-01-23T08:12:28.088Z,6.12
2018-01-23T08:13:27.848Z,6.12
2018-01-23T08:14:27.860Z,6.04
2018-01-23T08:15:27.875Z,6.09
2018-01-23T08:16:27.904Z,6.09
2018-01-23T08:17:27.907Z,5.91
2018-01-23T08:18:27.919Z,5.93
2018-01-23T08:19:27.937Z,5.98
2018-01-23T08:20:27.948Z,6.05
2018-01-23T08:21:27.962Z,6.08
2018-01-23T08:22:27.725Z,6.14
2018-01-23T08:23:27.992Z,6.26
2018-01-23T08:24:28.009Z,6.24
2018-01-23T08:25:27.773Z,6.19
2018-01-23T08:26:27.787Z,6.22
2018-01-23T08:27:28.054Z,6.17
2018-01-23T08:28:28.322Z,6.05
2018-01-23T08:29:27.832Z,6.08
2018-01-23T08:30:28.095Z,5.91
2018-01-23T08:31:28.122Z,5.98
2018-01-23T08:32:28.384Z,5.97
2018-01-23T08:33:28.396Z,6.04
2018-01-23T08:34:28.419Z,6.17
2018-01-23T08:35:28.422Z,6.05
2018-01-23T08:36:28.190Z,5.99
2018-01-23T08:37:28.452Z,5.98
2018-01-23T08:38:28.468Z,6.26
2018-01-23T08:39:27.986Z,6.22
2018-01-23T08:40:28.501Z,6.38
2018-01-23T08:41:28.264Z,6.26
2018-01-23T08:42:28.528Z,6.17
2018-01-23T08:43:28.295Z,6.2
2018-01-23T08:44:28.356Z,6.3
2018-01-23T08:45:28.326Z,6.09
2018-01-23T08:46:28.084Z,6.28
2018-01-23T08:47:28.354Z,6.27
2018-01-23T08:48:28.116Z,6.24
2018-01-23T08:49:28.628Z,6.26
2018-01-23T08:50:28.434Z,6.28
2018-01-23T08:51:28.738Z,6.42
2018-01-23T08:52:28.426Z,6.56
2018-01-23T08:53:28.693Z,6.6
2018-01-23T08:54:28.708Z,6.49
2018-01-23T08:55:28.483Z,6.45
2018-01-23T08:56:28.487Z,6.38
2018-01-23T08:57:28.501Z,6.38
2018-01-23T08:58:28.514Z,6.44
2018-01-23T08:59:28.526Z,6.49
2018-01-23T09:00:28.543Z,6.54
2018-01-23T09:01:28.310Z,6.54
2018-01-23T09:02:28.576Z,6.54
2018-01-23T09:03:28.870Z,6.54
2018-01-23T09:04:28.602Z,6.67
2018-01-23T09:05:28.366Z,6.52
2018-01-23T09:06:28.893Z,6.46
2018-01-23T09:07:28.667Z,6.39
2018-01-23T09:08:28.710Z,6.31
2018-01-23T09:09:28.427Z,6.27
2018-01-23T09:10:28.965Z,6.2
2018-01-23T09:11:28.961Z,6.26
2018-01-23T09:12:28.724Z,6.26
2018-01-23T09:13:28.740Z,6.27
2018-01-23T09:14:29.014Z,6.16
2018-01-23T09:15:28.771Z,6.26
2018-01-23T09:16:28.789Z,6.26
2018-01-23T09:17:29.106Z,6.02
2018-01-23T09:18:28.822Z,6.08
2018-01-23T09:19:29.079Z,6.08
2018-01-23T09:20:29.144Z,6.09
2018-01-23T09:21:28.607Z,6.09
2018-01-23T09:22:28.895Z,6.17
2018-01-23T09:23:28.642Z,6.19
2018-01-23T09:24:29.154Z,6.35
2018-01-23T09:25:29.172Z,6.33
2018-01-23T09:26:29.185Z,6.27
2018-01-23T09:27:28.947Z,6.31
2018-01-23T09:28:29.216Z,6.48
2018-01-23T09:29:29.230Z,6.46
2018-01-23T09:30:28.762Z,6.39
2018-01-23T09:31:29.263Z,6.46
2018-01-23T09:32:29.032Z,6.6
2018-01-23T09:33:29.041Z,6.42
2018-01-23T09:34:29.058Z,6.48
2018-01-23T09:35:28.872Z,6.66
2018-01-23T09:36:29.087Z,6.56
2018-01-23T09:37:29.357Z,6.51
2018-01-23T09:38:29.423Z,6.51
2018-01-23T09:39:28.883Z,6.51
2018-01-23T09:40:29.144Z,6.54
2018-01-23T09:41:28.911Z,6.56
2018-01-23T09:42:28.925Z,6.69
2018-01-23T09:43:29.440Z,6.88
2018-01-23T09:44:29.459Z,6.89
2018-01-23T09:45:29.538Z,6.79
2018-01-23T09:46:29.504Z,6.85
2018-01-23T09:47:29.254Z,6.95
2018-01-23T09:48:29.521Z,6.89
2018-01-23T09:49:29.283Z,6.89
2018-01-23T09:50:29.300Z,6.79
2018-01-23T09:51:29.315Z,6.84
2018-01-23T09:52:29.334Z,6.88
2018-01-23T09:53:29.348Z,6.78
2018-01-23T09:54:29.368Z,6.78
2018-01-23T09:55:29.626Z,6.75
2018-01-23T09:56:29.141Z,6.77
2018-01-23T09:57:29.156Z,6.84
2018-01-23T09:58:29.715Z,6.74
2018-01-23T09:59:29.434Z,6.75
2018-01-23T10:00:29.451Z,6.77
2018-01-23T10:01:29.729Z,6.72
2018-01-23T10:02:29.480Z,6.93
2018-01-23T10:03:29.246Z,7.1
2018-01-23T10:04:29.511Z,7.25
2018-01-23T10:05:29.542Z,7.32
2018-01-23T10:06:29.554Z,7.28
2018-01-23T10:07:29.810Z,7.4
2018-01-23T10:08:29.822Z,7.42
2018-01-23T10:09:29.336Z,7.23
2018-01-23T10:10:29.854Z,7.21
2018-01-23T10:11:29.369Z,7.25
2018-01-23T10:12:29.632Z,7.4
2018-01-23T10:13:29.916Z,7.39
2018-01-23T10:14:29.916Z,7.29
2018-01-23T10:15:29.939Z,7.2
2018-01-23T10:16:29.948Z,7.23
2018-01-23T10:17:29.712Z,7.32
2018-01-23T10:18:29.474Z,7.18
2018-01-23T10:19:29.741Z,7.33
2018-01-23T10:20:30.014Z,7.33
2018-01-23T10:21:30.026Z,7.39
2018-01-23T10:22:30.039Z,7.38
2018-01-23T10:23:29.805Z,7.39
2018-01-23T10:24:29.568Z,7.36
2018-01-23T10:25:29.837Z,7.45
2018-01-23T10:26:29.850Z,7.53
2018-01-23T10:27:29.866Z,7.6
2018-01-23T10:28:30.133Z,7.63
2018-01-23T10:29:29.900Z,7.53
2018-01-23T10:30:30.172Z,7.5
2018-01-23T10:31:29.944Z,7.48
2018-01-23T10:32:29.949Z,7.43
2018-01-23T10:33:29.961Z,7.45
2018-01-23T10:34:30.226Z,7.42
2018-01-23T10:35:29.991Z,7.39
2018-01-23T10:36:30.005Z,7.32
2018-01-23T10:37:30.027Z,7.35
2018-01-23T10:38:30.301Z,7.24
2018-01-23T10:39:30.310Z,7.29
2018-01-23T10:40:29.817Z,7.4
2018-01-23T10:41:30.089Z,7.47
2018-01-23T10:42:30.099Z,7.42
2018-01-23T10:43:30.113Z,7.32
2018-01-23T10:44:30.130Z,7.35
2018-01-23T10:45:29.893Z,7.33
2018-01-23T10:46:30.158Z,7.33
2018-01-23T10:47:30.174Z,7.11
2018-01-23T10:48:30.189Z,7.21
2018-01-23T10:49:30.207Z,7.17
2018-01-23T10:50:30.218Z,7.42
2018-01-23T10:51:30.490Z,7.31
2018-01-23T10:52:30.250Z,7.38
2018-01-23T10:53:30.267Z,7.45
2018-01-23T10:54:30.069Z,7.38
2018-01-23T10:55:30.297Z,7.24
2018-01-23T10:56:30.617Z,7.24
2018-01-23T10:57:30.329Z,7.32
2018-01-23T10:58:30.594Z,7.39
2018-01-23T10:59:30.626Z,7.56
2018-01-23T11:00:30.624Z,7.56
2018-01-23T11:01:30.395Z,7.29
2018-01-23T11:02:30.403Z,7.38
2018-01-23T11:03:30.419Z,7.25
2018-01-23T11:04:30.182Z,7.18
2018-01-23T11:05:30.201Z,7.28
2018-01-23T11:06:30.468Z,7.4
2018-01-23T11:07:30.746Z,7.4
2018-01-23T11:08:30.750Z,7.45
2018-01-23T11:09:30.765Z,7.54
2018-01-23T11:10:30.534Z,7.58
2018-01-23T11:11:30.818Z,7.54
2018-01-23T11:12:30.561Z,7.43
2018-01-23T11:13:30.830Z,7.54
2018-01-23T11:14:30.853Z,7.36
2018-01-23T11:15:30.607Z,7.07
2018-01-23T11:16:30.880Z,7.17
2018-01-23T11:17:30.893Z,7.07
2018-01-23T11:18:30.402Z,7.15
2018-01-23T11:19:30.669Z,7.28
2018-01-23T11:20:30.685Z,7.32
2018-01-23T11:21:30.445Z,7.32
2018-01-23T11:22:30.465Z,7.43
2018-01-23T11:23:30.731Z,7.36
2018-01-23T11:24:30.747Z,7.45
2018-01-23T11:25:30.760Z,7.4
2018-01-23T11:26:30.788Z,7.43
2018-01-23T11:27:30.794Z,7.47
2018-01-23T11:28:30.807Z,7.54
2018-01-23T11:29:31.079Z,7.6
2018-01-23T11:30:30.838Z,7.77
2018-01-23T11:31:31.108Z,7.69
2018-01-23T11:32:30.871Z,7.56
2018-01-23T11:33:30.888Z,7.67
2018-01-23T11:34:30.904Z,7.75
2018-01-23T11:35:31.170Z,7.61
2018-01-23T11:36:31.203Z,7.63
2018-01-23T11:37:31.203Z,7.73
2018-01-23T11:38:31.255Z,7.75
2018-01-23T11:39:30.980Z,7.85
2018-01-23T11:40:31.247Z,7.54
2018-01-23T11:41:31.264Z,7.42
2018-01-23T11:42:31.031Z,7.39
2018-01-23T11:43:31.045Z,7.61
2018-01-23T11:44:31.065Z,7.7
2018-01-23T11:45:30.825Z,7.67
2018-01-23T11:46:31.102Z,7.56
2018-01-23T11:47:31.106Z,7.53
2018-01-23T11:48:31.138Z,7.42
2018-01-23T11:49:31.394Z,7.54
2018-01-23T11:50:31.152Z,7.8
2018-01-23T11:51:31.432Z,7.93
2018-01-23T11:52:31.437Z,7.94
2018-01-23T11:53:31.202Z,7.8
2018-01-23T11:54:31.216Z,7.87
2018-01-23T11:55:31.483Z,7.95
2018-01-23T11:56:31.253Z,8.08
2018-01-23T11:57:31.011Z,7.95
2018-01-23T11:58:31.279Z,8.01
2018-01-23T11:59:31.547Z,8.06
2018-01-23T12:00:31.564Z,8.03
2018-01-23T12:01:31.326Z,8.01
2018-01-23T12:02:31.347Z,7.91
2018-01-23T12:03:31.612Z,7.93
2018-01-23T12:04:31.624Z,7.82
2018-01-23T12:05:31.648Z,7.88
2018-01-23T12:06:31.417Z,7.91
2018-01-23T12:07:31.676Z,7.91
2018-01-23T12:08:31.442Z,8.08
2018-01-23T12:09:31.455Z,8.03
2018-01-23T12:10:31.486Z,7.97
2018-01-23T12:11:31.737Z,7.8
2018-01-23T12:12:31.756Z,8.03
2018-01-23T12:13:31.521Z,8.1
2018-01-23T12:14:31.806Z,8.15
2018-01-23T12:15:31.550Z,8.1
2018-01-23T12:16:31.568Z,8.08
2018-01-23T12:17:31.833Z,8.2
2018-01-23T12:18:31.607Z,8.34
2018-01-23T12:19:31.624Z,8.31
2018-01-23T12:20:31.377Z,8.24
2018-01-23T12:21:31.647Z,8.24
2018-01-23T12:22:31.662Z,8.36
2018-01-23T12:23:31.930Z,8.42
2018-01-23T12:24:31.695Z,8.34
2018-01-23T12:25:31.961Z,8.48
2018-01-23T12:26:31.979Z,8.41
2018-01-23T12:27:31.494Z,8.42
2018-01-23T12:28:31.509Z,8.31
2018-01-23T12:29:31.845Z,8.37
2018-01-23T12:30:32.043Z,8.31
2018-01-23T12:31:31.561Z,8.28
2018-01-23T12:32:31.836Z,8.27
2018-01-23T12:33:31.589Z,8.26
2018-01-23T12:34:32.115Z,8.41
2018-01-23T12:35:31.907Z,8.48
2018-01-23T12:36:32.142Z,8.49
2018-01-23T12:37:32.157Z,8.58
2018-01-23T12:38:32.174Z,8.67
2018-01-23T12:39:31.686Z,8.78
2018-01-23T12:40:32.208Z,8.85
2018-01-23T12:41:32.221Z,8.92
2018-01-23T12:42:31.986Z,8.82
2018-01-23T12:43:32.002Z,8.76
2018-01-23T12:44:31.768Z,8.7
2018-01-23T12:45:32.039Z,8.64
2018-01-23T12:46:32.052Z,8.67
2018-01-23T12:47:31.826Z,8.78
2018-01-23T12:48:32.085Z,8.63
2018-01-23T12:49:32.110Z,8.79
2018-01-23T12:50:32.380Z,8.84
2018-01-23T12:51:32.138Z,8.63
2018-01-23T12:52:32.152Z,8.76
2018-01-23T12:53:32.424Z,8.82
2018-01-23T12:54:32.449Z,8.76
2018-01-23T12:55:32.455Z,8.95
2018-01-23T12:56:31.969Z,9.11
2018-01-23T12:57:32.248Z,8.97
2018-01-23T12:58:32.252Z,8.84
2018-01-23T12:59:32.271Z,8.81
2018-01-23T13:00:32.539Z,8.76
2018-01-23T13:01:32.581Z,8.99
2018-01-23T13:02:32.571Z,8.79
2018-01-23T13:03:32.339Z,9.02
2018-01-23T13:04:32.118Z,8.99
2018-01-23T13:05:32.373Z,9.08
2018-01-23T13:06:32.388Z,9.23
2018-01-23T13:07:32.659Z,9.29
2018-01-23T13:08:32.170Z,9.22
2018-01-23T13:09:32.691Z,8.97
2018-01-23T13:10:32.452Z,9.16
2018-01-23T13:11:32.219Z,9.22
2018-01-23T13:12:32.738Z,9.34
2018-01-23T13:13:32.756Z,9.11
2018-01-23T13:14:32.520Z,9.18
2018-01-23T13:15:32.787Z,9
2018-01-23T13:16:32.554Z,8.95
2018-01-23T13:17:32.853Z,9.1
2018-01-23T13:18:32.838Z,8.99
2018-01-23T13:19:32.612Z,9.1
2018-01-23T13:20:32.627Z,8.84